Time;durP1;ratioP1;P1;durP2;ratioP2;P2;SDS_P1;SDS_P2;PMS_P1;PMS_P2;Temp;Humidity;BMP_temperature;BMP_pressure;BME280_temperature;BME280_humidity;BME280_pressure;Samples;Min_cycle;Max_cycle;Signal;HPM_P1;HPM_P2
2023/09/24 00:02:17;;;;;;;0.83;0.83;;;8.80;99.90;8.60;101158.00;;;;4976022;28;83410;-66
2023/09/24 00:04:42;;;;;;;0.80;0.77;;;8.70;99.90;8.60;101165.00;;;;4970745;28;83112;-65
2023/09/24 00:07:10;;;;;;;1.03;0.90;;;8.70;99.90;8.60;101163.00;;;;4972307;28;107109;-67
2023/09/24 00:09:35;;;;;;;1.13;0.67;;;8.70;99.90;8.50;101161.00;;;;4969362;28;82830;-67
2023/09/24 00:12:01;;;;;;;1.83;1.50;;;8.60;99.90;8.50;101163.00;;;;4973182;28;86192;-66
2023/09/24 00:14:33;;;;;;;1.33;1.00;;;8.60;99.90;8.40;101158.00;;;;4972673;28;81799;-67
2023/09/24 00:17:00;;;;;;;1.57;1.47;;;8.60;99.90;8.40;101167.00;;;;4971958;28;82932;-66
2023/09/24 00:19:26;;;;;;;1.00;0.90;;;8.50;99.90;8.30;101169.00;;;;4975152;28;84542;-66
2023/09/24 00:21:52;;;;;;;0.70;0.70;;;8.50;99.90;8.30;101174.00;;;;4970153;28;83740;-66
2023/09/24 00:24:17;;;;;;;1.10;1.00;;;8.40;99.90;8.20;101181.00;;;;4972260;28;99291;-66
2023/09/24 00:26:46;;;;;;;3.10;1.57;;;8.40;99.90;8.20;101171.00;;;;4973374;28;108467;-66
2023/09/24 00:29:13;;;;;;;2.07;1.60;;;8.40;99.90;8.20;101176.00;;;;4972032;28;83935;-66
2023/09/24 00:31:38;;;;;;;2.90;1.63;;;8.60;99.90;8.20;101173.00;;;;4972062;28;113269;-66
2023/09/24 00:34:04;;;;;;;1.60;1.00;;;8.50;99.90;8.20;101183.00;;;;4976529;28;89383;-66
2023/09/24 00:36:32;;;;;;;1.23;0.87;;;8.30;99.90;8.20;101182.00;;;;4974135;28;90372;-66
2023/09/24 00:38:59;;;;;;;1.00;0.50;;;8.30;99.90;8.10;101178.00;;;;4977236;28;82847;-66
2023/09/24 00:41:25;;;;;;;1.70;1.20;;;8.60;99.90;8.10;101186.00;;;;4969321;28;83378;-66
2023/09/24 00:43:50;;;;;;;1.13;0.90;;;8.30;99.90;8.10;101167.00;;;;4975365;28;82658;-67
2023/09/24 00:46:16;;;;;;;1.50;1.10;;;8.60;99.90;8.10;101169.00;;;;4976174;28;107667;-66
2023/09/24 00:48:45;;;;;;;1.17;0.70;;;8.20;99.90;8.10;101179.00;;;;4967229;28;112303;-66
2023/09/24 00:51:16;;;;;;;5.30;1.10;;;8.20;99.90;8.00;101174.00;;;;4974894;28;83683;-66
2023/09/24 00:53:42;;;;;;;1.77;1.00;;;8.20;99.90;8.00;101188.00;;;;4975796;28;83209;-66
2023/09/24 00:56:09;;;;;;;1.07;0.80;;;8.10;99.90;7.90;101179.00;;;;4972890;28;82698;-66
2023/09/24 00:58:35;;;;;;;0.90;0.80;;;8.10;99.90;7.90;101185.00;;;;4975130;28;83072;-66
2023/09/24 01:01:03;;;;;;;0.80;0.77;;;8.10;99.90;7.90;101187.00;;;;4974435;28;83474;-66
2023/09/24 01:03:28;;;;;;;2.50;1.10;;;8.00;99.90;7.80;101179.00;;;;4971336;28;81931;-66
2023/09/24 01:05:54;;;;;;;1.07;0.97;;;8.00;99.90;7.80;101194.00;;;;4962673;28;108141;-65
2023/09/24 01:08:23;;;;;;;1.07;0.87;;;8.10;99.90;7.80;101191.00;;;;4969220;28;83564;-67
2023/09/24 01:10:49;;;;;;;1.57;1.27;;;7.90;99.90;7.80;101202.00;;;;4975859;28;83751;-66
2023/09/24 01:13:20;;;;;;;1.97;1.33;;;8.30;99.90;7.80;101207.00;;;;4972886;28;83097;-66
2023/09/24 01:15:50;;;;;;;1.10;1.00;;;7.90;99.90;7.70;101197.00;;;;4973180;28;82731;-66
2023/09/24 01:18:17;;;;;;;0.80;0.80;;;7.90;99.90;7.70;101216.00;;;;4972839;28;83000;-66
2023/09/24 01:20:43;;;;;;;1.33;1.00;;;7.90;99.90;7.70;101194.00;;;;4979764;28;83322;-66
2023/09/24 01:23:10;;;;;;;1.17;1.07;;;7.80;99.90;7.70;101203.00;;;;4971517;28;83060;-66
2023/09/24 01:25:37;;;;;;;0.87;0.87;;;8.20;99.90;7.70;101209.00;;;;4956021;28;82803;-66
2023/09/24 01:28:07;;;;;;;1.40;1.10;;;7.70;99.90;7.60;101213.00;;;;4954910;28;83029;-66
2023/09/24 01:30:34;;;;;;;2.50;1.43;;;7.80;99.90;7.60;101209.00;;;;4953760;28;82814;-66
2023/09/24 01:33:01;;;;;;;1.00;0.83;;;8.10;99.90;7.60;101211.00;;;;4952616;28;83013;-66
2023/09/24 01:35:28;;;;;;;0.70;0.70;;;7.70;99.90;7.60;101225.00;;;;4952299;28;83644;-66
2023/09/24 01:37:59;;;;;;;1.43;1.00;;;7.70;99.90;7.50;101224.00;;;;4951831;28;96863;-66
2023/09/24 01:40:32;;;;;;;1.07;0.97;;;7.60;99.90;7.50;101222.00;;;;4952374;28;83527;-66
2023/09/24 01:43:00;;;;;;;1.50;1.00;;;7.90;99.90;7.50;101229.00;;;;4956206;28;82781;-67
2023/09/24 01:45:28;;;;;;;2.40;1.03;;;7.60;99.90;7.50;101228.00;;;;4954337;28;82685;-67
2023/09/24 01:47:55;;;;;;;0.63;0.63;;;7.60;99.90;7.40;101223.00;;;;4952915;28;83883;-66
2023/09/24 01:50:27;;;;;;;0.80;0.80;;;8.00;99.90;7.40;101231.00;;;;4950473;28;85276;-66
2023/09/24 01:52:53;;;;;;;1.10;1.00;;;7.60;99.90;7.40;101235.00;;;;4948830;28;81907;-66
2023/09/24 01:55:21;;;;;;;1.00;0.90;;;7.70;99.90;7.40;101228.00;;;;4954201;28;82678;-66
2023/09/24 01:57:47;;;;;;;1.97;1.10;;;7.50;99.90;7.40;101229.00;;;;4952311;28;83394;-67
2023/09/24 02:00:26;;;;;;;2.10;1.73;;;7.50;99.90;7.30;101223.00;;;;4949717;28;111582;-66
2023/09/24 02:02:54;;;;;;;0.50;0.50;;;7.50;99.90;7.30;101228.00;;;;4950338;28;83041;-66
2023/09/24 02:05:20;;;;;;;1.27;1.17;;;7.50;99.90;7.30;101239.00;;;;4954510;28;82763;-67
2023/09/24 02:07:49;;;;;;;1.00;0.70;;;7.50;99.90;7.30;101237.00;;;;4952162;28;83793;-66
2023/09/24 02:10:20;;;;;;;1.20;0.90;;;7.40;99.90;7.30;101246.00;;;;4949426;28;83544;-67
2023/09/24 02:12:46;;;;;;;2.93;1.10;;;7.40;99.90;7.30;101240.00;;;;4950358;28;83031;-66
2023/09/24 02:15:17;;;;;;;1.50;1.23;;;7.40;99.90;7.30;101240.00;;;;4951101;28;82832;-67
2023/09/24 02:17:45;;;;;;;1.83;1.37;;;7.40;99.90;7.20;101243.00;;;;4937392;28;87582;-65
2023/09/24 02:20:27;;;;;;;1.27;0.93;;;7.60;99.90;7.20;101244.00;;;;4950086;28;82991;-65
2023/09/24 02:22:57;;;;;;;0.60;0.60;;;7.50;99.90;7.20;101250.00;;;;4955272;28;85515;-66
2023/09/24 02:25:25;;;;;;;1.90;0.77;;;7.30;99.90;7.20;101256.00;;;;4978839;28;83854;-66
2023/09/24 02:27:51;;;;;;;2.20;0.80;;;7.40;99.90;7.20;101262.00;;;;4958310;28;84186;-65
2023/09/24 02:30:18;;;;;;;2.80;1.33;;;7.30;99.90;7.10;101257.00;;;;4980568;28;82949;-66
2023/09/24 02:32:44;;;;;;;1.13;0.83;;;7.40;99.90;7.10;101260.00;;;;4974825;28;82997;-67
2023/09/24 02:35:11;;;;;;;2.60;0.97;;;7.30;99.90;7.10;101260.00;;;;4972749;28;82762;-66
2023/09/24 02:37:45;;;;;;;1.20;0.77;;;7.70;99.90;7.10;101255.00;;;;4975176;28;82986;-65
2023/09/24 02:40:21;;;;;;;1.47;1.20;;;7.50;99.90;7.00;101258.00;;;;4973200;28;83918;-65
2023/09/24 02:42:48;;;;;;;0.83;0.83;;;7.20;99.90;7.00;101258.00;;;;4974917;28;81956;-65
2023/09/24 02:45:15;;;;;;;2.07;1.00;;;7.30;99.90;7.00;101273.00;;;;4975354;28;82666;-65
2023/09/24 02:47:42;;;;;;;0.60;0.50;;;7.10;99.90;7.00;101272.00;;;;4974345;28;83905;-66
2023/09/24 02:50:12;;;;;;;1.33;0.50;;;7.20;99.90;7.00;101272.00;;;;4975061;28;83877;-65
2023/09/24 02:52:41;;;;;;;0.97;0.97;;;7.10;99.90;7.00;101282.00;;;;4973747;28;82560;-65
2023/09/24 02:55:13;;;;;;;1.33;1.10;;;7.10;99.90;7.00;101286.00;;;;4961697;28;82694;-65
2023/09/24 02:57:39;;;;;;;2.00;1.20;;;7.10;99.90;6.90;101286.00;;;;4973596;28;82623;-65
2023/09/24 03:00:19;;;;;;;0.90;0.90;;;7.10;99.90;6.90;101283.00;;;;4975049;28;83451;-68
2023/09/24 03:02:48;;;;;;;2.67;1.07;;;7.10;99.90;6.90;101301.00;;;;4979180;28;83011;-65
2023/09/24 03:05:20;;;;;;;2.53;1.30;;;7.10;99.90;6.90;101300.00;;;;4971897;28;110368;-65
2023/09/24 03:07:51;;;;;;;1.83;0.90;;;7.10;99.90;6.90;101302.00;;;;4973850;28;82380;-65
2023/09/24 03:10:18;;;;;;;1.03;0.97;;;7.10;99.90;6.90;101308.00;;;;4976762;28;82817;-66
2023/09/24 03:12:45;;;;;;;1.20;1.03;;;7.00;99.90;6.80;101321.00;;;;4976149;28;84075;-65
2023/09/24 03:15:11;;;;;;;1.60;1.23;;;7.00;99.90;6.80;101325.00;;;;4975059;28;83545;-66
2023/09/24 03:17:38;;;;;;;1.33;1.23;;;7.00;99.90;6.70;101330.00;;;;4975400;28;82892;-66
2023/09/24 03:20:14;;;;;;;1.57;1.10;;;6.90;99.90;6.70;101328.00;;;;4971101;28;103551;-66
2023/09/24 03:22:42;;;;;;;1.57;1.47;;;6.90;99.90;6.60;101327.00;;;;4974356;28;82751;-65
2023/09/24 03:25:19;;;;;;;1.43;1.13;;;6.80;99.90;6.60;101337.00;;;;4974465;28;82569;-66
2023/09/24 03:27:49;;;;;;;2.67;1.00;;;7.00;99.90;6.60;101328.00;;;;4988120;27;89396;-66
2023/09/24 03:30:17;;;;;;;1.17;1.07;;;7.20;99.90;6.50;101328.00;;;;4974410;28;82849;-66
2023/09/24 03:32:44;;;;;;;1.60;0.90;;;6.70;99.90;6.50;101337.00;;;;4957529;28;81872;-66
2023/09/24 03:35:24;;;;;;;0.97;0.90;;;6.80;99.90;6.50;101331.00;;;;4970699;28;82714;-65
2023/09/24 03:37:51;;;;;;;1.90;1.43;;;6.70;99.90;6.50;101333.00;;;;4977038;28;99438;-67
2023/09/24 03:40:19;;;;;;;1.30;1.20;;;6.70;99.90;6.50;101330.00;;;;4977120;28;83722;-65
2023/09/24 03:42:46;;;;;;;0.83;0.83;;;6.70;99.90;6.50;101337.00;;;;4973829;28;82496;-65
2023/09/24 03:45:15;;;;;;;1.10;1.00;;;6.70;99.90;6.50;101338.00;;;;4974510;28;83034;-66
2023/09/24 03:47:42;;;;;;;1.40;1.07;;;6.70;99.90;6.50;101356.00;;;;4978404;28;83844;-66
2023/09/24 03:50:13;;;;;;;1.03;1.00;;;6.70;99.90;6.50;101359.00;;;;4976837;28;83255;-66
2023/09/24 03:52:43;;;;;;;1.43;1.20;;;6.60;99.90;6.50;101372.00;;;;4972988;28;82799;-66
2023/09/24 03:55:09;;;;;;;1.13;0.93;;;6.60;99.90;6.40;101381.00;;;;4959658;28;104777;-65
2023/09/24 03:57:36;;;;;;;2.10;1.50;;;6.60;99.90;6.50;101379.00;;;;4974812;28;83616;-66
2023/09/24 04:00:06;;;;;;;1.30;1.20;;;6.60;99.90;6.50;101380.00;;;;4971934;28;83155;-66
2023/09/24 04:02:32;;;;;;;1.33;1.23;;;6.60;99.90;6.50;101375.00;;;;4972498;28;82626;-66
2023/09/24 04:04:58;;;;;;;1.30;1.20;;;6.70;99.90;6.60;101381.00;;;;4977350;28;106660;-66
2023/09/24 04:07:23;;;;;;;1.63;1.33;;;6.70;99.90;6.60;101392.00;;;;4974176;28;112458;-66
2023/09/24 04:09:49;;;;;;;1.37;1.10;;;6.80;99.90;6.70;101393.00;;;;4973434;28;111849;-67
2023/09/24 04:12:15;;;;;;;1.07;1.07;;;6.80;99.90;6.80;101405.00;;;;4972591;28;82666;-66
2023/09/24 04:14:41;;;;;;;1.50;1.40;;;6.90;99.90;6.80;101405.00;;;;4974851;28;95088;-65
2023/09/24 04:17:06;;;;;;;5.03;1.47;;;6.90;99.90;6.90;101404.00;;;;4974280;28;89207;-66
2023/09/24 04:19:34;;;;;;;1.50;1.10;;;7.10;99.90;7.00;101414.00;;;;4967795;28;85311;-68
2023/09/24 04:22:00;;;;;;;1.50;1.40;;;7.10;99.90;7.10;101410.00;;;;4974323;28;81929;-65
2023/09/24 04:24:36;;;;;;;1.80;1.27;;;7.20;99.90;7.20;101420.00;;;;4972709;28;82707;-66
2023/09/24 04:27:01;;;;;;;1.20;0.97;;;7.30;99.90;7.30;101413.00;;;;4976104;28;83870;-65
2023/09/24 04:29:27;;;;;;;1.80;1.40;;;7.40;99.90;7.40;101419.00;;;;4974516;28;111240;-66
2023/09/24 04:31:53;;;;;;;1.50;1.03;;;7.50;99.90;7.50;101427.00;;;;4978062;28;82797;-66
2023/09/24 04:34:19;;;;;;;1.27;1.07;;;7.60;99.90;7.60;101427.00;;;;4969654;28;107984;-66
2023/09/24 04:36:44;;;;;;;1.53;1.43;;;7.70;99.90;7.70;101426.00;;;;4973150;28;84070;-65
2023/09/24 04:39:16;;;;;;;1.50;1.33;;;8.00;99.90;7.80;101430.00;;;;4974601;28;111330;-65
2023/09/24 04:41:47;;;;;;;0.93;0.93;;;7.80;99.90;7.80;101429.00;;;;4977275;28;109127;-66
2023/09/24 04:44:13;;;;;;;0.97;0.80;;;7.90;99.90;7.90;101432.00;;;;4975343;28;82772;-67
2023/09/24 04:46:39;;;;;;;1.00;0.90;;;7.90;99.90;8.00;101432.00;;;;4973696;28;83488;-66
2023/09/24 04:49:05;;;;;;;2.20;1.40;;;8.00;99.90;8.00;101429.00;;;;4968701;28;111882;-66
2023/09/24 04:51:32;;;;;;;0.97;0.97;;;8.10;99.90;8.10;101445.00;;;;4978152;28;84131;-66
2023/09/24 04:53:59;;;;;;;1.13;1.00;;;8.20;99.90;8.10;101439.00;;;;4974229;28;83783;-66
2023/09/24 04:56:25;;;;;;;0.93;0.80;;;8.20;99.90;8.10;101441.00;;;;4977509;28;83011;-66
2023/09/24 04:58:50;;;;;;;1.00;0.83;;;8.20;99.90;8.20;101461.00;;;;4973023;28;113917;-67
2023/09/24 05:01:16;;;;;;;0.87;0.87;;;8.20;99.90;8.10;101461.00;;;;4974216;28;109731;-67
2023/09/24 05:03:42;;;;;;;1.47;1.30;;;8.20;99.90;8.10;101467.00;;;;4969124;28;108045;-66
2023/09/24 05:06:08;;;;;;;1.97;1.53;;;8.30;99.90;8.10;101464.00;;;;4971923;28;82987;-66
2023/09/24 05:08:34;;;;;;;0.97;0.87;;;8.30;99.90;8.20;101474.00;;;;4971810;28;111819;-66
2023/09/24 05:11:00;;;;;;;1.13;1.03;;;8.30;99.90;8.20;101470.00;;;;4973036;28;81985;-66
2023/09/24 05:13:26;;;;;;;2.00;1.07;;;8.20;99.90;8.20;101471.00;;;;4976263;28;82795;-65
2023/09/24 05:15:54;;;;;;;1.20;1.10;;;8.30;99.90;8.20;101475.00;;;;4974628;28;87910;-65
2023/09/24 05:18:23;;;;;;;1.43;0.93;;;8.30;99.90;8.30;101474.00;;;;4971415;28;84022;-66
2023/09/24 05:20:49;;;;;;;1.97;1.37;;;8.40;99.90;8.40;101475.00;;;;4975324;28;82646;-66
2023/09/24 05:23:21;;;;;;;1.60;1.40;;;8.40;99.90;8.40;101478.00;;;;4971176;28;82779;-65
2023/09/24 05:25:49;;;;;;;2.37;1.70;;;8.50;99.90;8.50;101475.00;;;;4975289;28;83879;-65
2023/09/24 05:28:14;;;;;;;3.37;2.57;;;8.60;99.90;8.60;101481.00;;;;4972389;28;92104;-66
2023/09/24 05:30:40;;;;;;;6.10;2.03;;;8.70;99.90;8.70;101489.00;;;;4972889;28;83199;-66
2023/09/24 05:33:07;;;;;;;3.37;2.10;;;8.70;99.90;8.80;101482.00;;;;4970479;28;85908;-66
2023/09/24 05:35:33;;;;;;;4.87;2.77;;;8.80;99.90;8.90;101494.00;;;;4972517;28;82723;-65
2023/09/24 05:37:58;;;;;;;12.63;6.70;;;8.90;99.90;8.90;101492.00;;;;4968580;28;111955;-67
2023/09/24 05:40:24;;;;;;;6.00;4.53;;;9.00;99.90;9.00;101500.00;;;;4972151;28;82567;-67
2023/09/24 05:42:50;;;;;;;4.60;1.90;;;9.00;99.90;9.10;101502.00;;;;4954629;28;84526;-67
2023/09/24 05:45:15;;;;;;;2.63;2.13;;;9.10;99.90;9.10;101510.00;;;;4970881;28;113632;-65
2023/09/24 05:47:41;;;;;;;2.17;1.60;;;9.20;99.90;9.20;101513.00;;;;4975325;28;112023;-65
2023/09/24 05:50:08;;;;;;;1.73;1.63;;;9.20;99.90;9.30;101526.00;;;;4972314;28;111902;-66
2023/09/24 05:52:33;;;;;;;2.07;1.33;;;9.30;99.90;9.30;101517.00;;;;4976027;28;98144;-65
2023/09/24 05:54:59;;;;;;;1.53;1.43;;;9.40;99.90;9.50;101511.00;;;;4970193;28;112636;-66
2023/09/24 05:57:28;;;;;;;3.93;2.57;;;9.50;99.90;9.60;101516.00;;;;4972696;28;111913;-67
2023/09/24 05:59:55;;;;;;;2.10;1.17;;;9.50;99.90;9.60;101526.00;;;;4975782;28;82030;-66
2023/09/24 06:02:26;;;;;;;3.43;1.50;;;9.70;99.90;9.70;101523.00;;;;4981777;28;82522;-66
2023/09/24 06:04:58;;;;;;;3.13;1.70;;;9.80;99.90;9.80;101533.00;;;;4976280;28;84014;-66
2023/09/24 06:07:27;;;;;;;1.63;1.40;;;9.90;99.90;9.90;101540.00;;;;4963957;28;106269;-66
2023/09/24 06:09:56;;;;;;;2.30;1.57;;;10.00;99.90;10.00;101532.00;;;;4968185;28;83003;-65
2023/09/24 06:12:24;;;;;;;1.70;1.50;;;10.00;99.90;10.10;101537.00;;;;4975738;28;82783;-66
2023/09/24 06:14:50;;;;;;;3.40;1.60;;;10.10;99.90;10.20;101539.00;;;;4981423;28;84100;-66
2023/09/24 06:17:15;;;;;;;1.80;1.23;;;10.20;99.90;10.30;101541.00;;;;4957494;28;83632;-65
2023/09/24 06:19:41;;;;;;;1.63;0.97;;;10.20;99.90;10.40;101551.00;;;;4976903;28;109426;-65
2023/09/24 06:22:07;;;;;;;1.73;1.17;;;10.40;99.90;10.50;101554.00;;;;4975253;28;108442;-65
2023/09/24 06:24:32;;;;;;;1.70;1.60;;;10.50;99.90;10.60;101554.00;;;;4973812;28;88024;-66
2023/09/24 06:26:58;;;;;;;1.33;1.20;;;10.60;99.90;10.70;101552.00;;;;4977405;28;89932;-65
2023/09/24 06:29:23;;;;;;;2.10;1.53;;;10.60;99.90;10.80;101550.00;;;;4972476;28;109677;-65
2023/09/24 06:31:50;;;;;;;1.30;1.10;;;10.70;99.90;10.80;101559.00;;;;4977519;28;109112;-66
2023/09/24 06:34:16;;;;;;;2.77;1.40;;;10.80;99.90;10.90;101566.00;;;;4973345;28;88909;-66
2023/09/24 06:36:42;;;;;;;1.60;1.17;;;10.90;99.90;11.00;101566.00;;;;4971236;28;116117;-66
2023/09/24 06:39:09;;;;;;;1.47;0.93;;;11.00;99.90;11.10;101568.00;;;;4956588;27;110493;-66
2023/09/24 06:41:35;;;;;;;1.33;1.20;;;11.10;99.90;11.20;101578.00;;;;4993935;28;87735;-66
2023/09/24 06:44:01;;;;;;;1.07;0.83;;;11.20;99.90;11.20;101587.00;;;;4996767;28;88582;-66
2023/09/24 06:46:26;;;;;;;1.40;1.07;;;11.20;99.90;11.30;101586.00;;;;4993741;27;116735;-66
2023/09/24 06:48:52;;;;;;;3.07;1.37;;;11.30;99.90;11.40;101582.00;;;;4996661;28;91802;-66
2023/09/24 06:51:19;;;;;;;1.30;1.20;;;11.40;99.90;11.50;101583.00;;;;4993010;27;107711;-65
2023/09/24 06:53:45;;;;;;;2.67;1.00;;;11.50;99.90;11.60;101584.00;;;;4994211;27;89252;-65
2023/09/24 06:56:11;;;;;;;1.27;0.73;;;11.70;99.90;11.70;101589.00;;;;4995077;27;88778;-64
2023/09/24 06:58:37;;;;;;;1.33;1.10;;;11.70;99.90;11.80;101587.00;;;;4993052;28;110419;-65
2023/09/24 07:01:03;;;;;;;1.10;1.00;;;11.80;99.90;11.90;101591.00;;;;4994715;27;88069;-67
2023/09/24 07:03:30;;;;;;;1.43;1.33;;;11.90;99.90;12.00;101588.00;;;;4992353;28;101703;-65
2023/09/24 07:05:56;;;;;;;6.33;1.17;;;12.00;99.90;12.00;101587.00;;;;4971864;28;88009;-67
2023/09/24 07:08:22;;;;;;;1.43;1.27;;;12.00;99.90;12.10;101592.00;;;;4990027;28;88144;-67
2023/09/24 07:11:19;;;;;;;1.77;1.13;;;12.00;99.90;12.10;101602.00;;;;4990320;28;108446;-67
2023/09/24 07:13:46;;;;;;;3.13;1.63;;;12.10;99.90;12.30;101608.00;;;;4993727;28;87268;-67
2023/09/24 07:16:11;;;;;;;1.23;1.13;;;12.30;99.90;12.40;101613.00;;;;4990584;28;108002;-67
2023/09/24 07:18:37;;;;;;;5.20;1.33;;;12.40;99.90;12.60;101608.00;;;;4990808;28;110410;-69
2023/09/24 07:21:08;;;;;;;2.20;1.03;;;12.50;99.90;12.80;101609.00;;;;4979061;28;89126;-66
2023/09/24 07:23:34;;;;;;;2.10;1.40;;;12.80;99.90;13.00;101620.00;;;;4951825;28;89651;-66
2023/09/24 07:26:00;;;;;;;1.73;1.33;;;12.90;99.90;13.20;101624.00;;;;4986865;28;116400;-66
2023/09/24 07:28:25;;;;;;;1.03;1.03;;;13.10;99.90;13.30;101619.00;;;;4984146;28;109273;-65
2023/09/24 07:30:52;;;;;;;2.00;1.40;;;13.20;99.90;13.50;101615.00;;;;4986931;28;97327;-66
2023/09/24 07:33:19;;;;;;;2.40;1.20;;;13.40;99.90;13.60;101608.00;;;;4987581;28;88865;-66
2023/09/24 07:35:46;;;;;;;2.53;1.63;;;13.50;99.90;13.80;101623.00;;;;4987400;28;88555;-66
2023/09/24 07:38:11;;;;;;;2.10;0.83;;;13.70;99.90;14.00;101629.00;;;;4986596;28;87030;-65
2023/09/24 07:40:37;;;;;;;2.20;1.07;;;13.90;99.90;14.10;101637.00;;;;4986900;28;88185;-65
2023/09/24 07:43:13;;;;;;;1.90;1.10;;;14.00;99.90;14.40;101639.00;;;;4987235;28;88610;-65
2023/09/24 07:45:42;;;;;;;3.90;0.90;;;14.20;99.90;14.50;101631.00;;;;4970241;28;117163;-65
2023/09/24 07:48:13;;;;;;;1.00;0.90;;;14.40;99.90;14.70;101647.00;;;;4986691;28;113710;-66
2023/09/24 07:50:38;;;;;;;3.75;1.60;;;14.60;99.90;15.00;101650.00;;;;4986509;28;87603;-66
2023/09/24 07:53:05;;;;;;;1.85;1.40;;;14.80;99.90;15.20;101642.00;;;;4987663;28;117692;-66
2023/09/24 07:55:31;;;;;;;1.23;1.00;;;15.00;99.90;15.40;101646.00;;;;4990544;28;88439;-65
2023/09/24 07:57:57;;;;;;;2.45;1.35;;;15.20;99.90;15.50;101643.00;;;;4993061;28;88226;-66
2023/09/24 08:00:23;;;;;;;1.92;0.73;;;15.40;99.90;15.70;101647.00;;;;4989504;28;108684;-66
2023/09/24 08:02:48;;;;;;;1.08;0.90;;;15.50;99.90;15.80;101657.00;;;;4989056;28;88195;-65
2023/09/24 08:05:15;;;;;;;1.10;1.00;;;15.70;99.90;15.90;101656.00;;;;4984087;28;116129;-66
2023/09/24 08:07:40;;;;;;;1.27;1.17;;;15.80;99.90;16.00;101669.00;;;;4989506;28;87863;-67
2023/09/24 08:10:07;;;;;;;2.13;1.05;;;15.90;99.90;16.10;101665.00;;;;4985714;28;107005;-65
2023/09/24 08:12:32;;;;;;;5.78;1.98;;;16.00;99.90;16.20;101672.00;;;;4984100;27;89247;-66
2023/09/24 08:14:58;;;;;;;1.08;1.00;;;16.10;99.90;16.20;101675.00;;;;4988290;28;117591;-66
2023/09/24 08:17:24;;;;;;;1.80;1.08;;;16.10;99.90;16.30;101679.00;;;;4984207;28;88047;-66
2023/09/24 08:19:49;;;;;;;1.10;0.88;;;16.20;99.90;16.40;101670.00;;;;4989500;28;107501;-67
2023/09/24 08:22:15;;;;;;;1.20;1.10;;;16.30;99.90;16.50;101678.00;;;;4987415;27;117224;-67
2023/09/24 08:24:42;;;;;;;0.88;0.88;;;16.40;99.90;16.60;101670.00;;;;4986595;28;117749;-67
2023/09/24 08:27:07;;;;;;;2.08;1.23;;;16.50;99.90;16.70;101669.00;;;;4983555;28;87220;-67
2023/09/24 08:29:33;;;;;;;1.35;1.25;;;16.60;99.90;16.90;101681.00;;;;4985810;28;108594;-66
2023/09/24 08:31:59;;;;;;;3.50;1.20;;;16.70;99.90;17.10;101676.00;;;;4982198;28;118661;-65
2023/09/24 08:34:26;;;;;;;1.52;0.95;;;16.90;99.90;17.40;101682.00;;;;4984170;28;117853;-67
2023/09/24 08:36:52;;;;;;;2.58;1.75;;;17.20;99.90;17.80;101692.00;;;;4982149;28;88275;-66
2023/09/24 08:39:18;;;;;;;1.63;1.33;;;17.50;99.90;17.90;101692.00;;;;4984494;28;87915;-67
2023/09/24 08:41:44;;;;;;;5.70;1.15;;;17.70;99.90;18.00;101687.00;;;;4985889;28;106852;-67
2023/09/24 08:44:17;;;;;;;1.30;1.20;;;17.90;99.90;18.10;101690.00;;;;4988742;28;87948;-67
2023/09/24 08:46:47;;;;;;;2.72;1.40;;;17.90;99.90;18.10;101689.00;;;;4988309;28;87816;-66
2023/09/24 08:49:13;;;;;;;1.33;1.20;;;18.00;99.90;18.30;101691.00;;;;4970937;28;88421;-67
2023/09/24 08:51:40;;;;;;;1.85;1.25;;;18.10;99.90;18.40;101694.00;;;;4992325;28;87993;-66
2023/09/24 08:54:06;;;;;;;0.93;0.93;;;18.30;99.90;18.70;101684.00;;;;4986858;28;88771;-65
2023/09/24 08:56:32;;;;;;;3.40;1.25;;;18.50;99.90;19.00;101698.00;;;;4972781;28;109425;-67
2023/09/24 08:58:58;;;;;;;1.90;1.17;;;18.80;99.80;19.30;101702.00;;;;4986125;28;107805;-65
2023/09/24 09:01:24;;;;;;;1.45;1.35;;;19.00;99.30;19.60;101693.00;;;;4988849;28;104572;-66
2023/09/24 09:03:49;;;;;;;1.50;1.08;;;19.30;99.00;19.90;101679.00;;;;4986175;28;118604;-66
2023/09/24 09:06:34;;;;;;;1.23;1.13;;;19.60;98.60;20.10;101702.00;;;;4984961;28;103151;-66
2023/09/24 09:09:00;;;;;;;3.53;1.70;;;19.90;97.50;20.30;101711.00;;;;4984974;28;88050;-67
2023/09/24 09:11:46;;;;;;;1.63;1.23;;;20.00;97.30;20.40;101716.00;;;;4969665;28;88229;-67
2023/09/24 09:14:12;;;;;;;1.70;1.15;;;20.20;96.30;20.40;101711.00;;;;4972568;28;87844;-67
2023/09/24 09:16:56;;;;;;;1.42;1.33;;;20.20;95.80;20.40;101702.00;;;;4985942;28;87269;-68
2023/09/24 09:19:23;;;;;;;1.83;1.70;;;20.30;95.30;20.50;101698.00;;;;4988632;27;88191;-67
2023/09/24 09:21:49;;;;;;;2.80;1.85;;;20.40;95.00;20.70;101709.00;;;;4987257;28;88281;-67
2023/09/24 09:24:25;;;;;;;4.68;1.20;;;20.50;94.90;21.00;101705.00;;;;4988183;28;117344;-66
2023/09/24 09:26:55;;;;;;;6.03;1.45;;;20.80;94.50;21.30;101696.00;;;;4988477;28;87780;-66
2023/09/24 09:29:27;;;;;;;2.67;0.93;;;21.00;94.30;21.70;101700.00;;;;4986435;28;87904;-68
2023/09/24 09:31:54;;;;;;;1.17;1.05;;;21.40;93.80;22.00;101705.00;;;;4988595;28;87956;-66
2023/09/24 09:34:21;;;;;;;1.20;0.98;;;21.70;93.20;22.30;101708.00;;;;4988092;28;88295;-66
2023/09/24 09:36:47;;;;;;;1.00;0.93;;;22.00;92.00;22.50;101708.00;;;;4987811;28;87850;-66
2023/09/24 09:39:13;;;;;;;1.20;1.10;;;22.30;90.40;22.60;101697.00;;;;4987285;28;87950;-67
2023/09/24 09:41:43;;;;;;;1.42;1.08;;;22.40;89.50;22.60;101714.00;;;;4988739;28;116684;-66
2023/09/24 09:44:10;;;;;;;1.15;0.70;;;22.50;88.90;22.30;101705.00;;;;4989435;28;87987;-67
2023/09/24 09:46:39;;;;;;;1.65;0.95;;;22.30;88.70;22.50;101698.00;;;;4975719;28;93356;-66
2023/09/24 09:49:09;;;;;;;3.13;1.23;;;22.30;89.20;22.80;101699.00;;;;4989387;28;88877;-67
2023/09/24 09:51:57;;;;;;;1.25;1.00;;;22.50;89.10;23.30;101688.00;;;;4985027;28;88204;-67
2023/09/24 09:54:24;;;;;;;0.50;0.50;;;23.00;88.00;23.90;101701.00;;;;4971705;28;87823;-68
2023/09/24 09:56:50;;;;;;;1.42;0.90;;;23.40;87.40;24.50;101697.00;;;;4984631;28;110038;-67
2023/09/24 09:59:17;;;;;;;1.13;1.05;;;24.00;85.40;24.80;101697.00;;;;4971218;28;104351;-67
2023/09/24 10:01:43;;;;;;;0.80;0.77;;;24.30;80.60;24.60;101702.00;;;;4983077;28;117186;-67
2023/09/24 10:04:09;;;;;;;1.08;0.98;;;24.30;77.10;24.20;101700.00;;;;4988411;28;88517;-66
2023/09/24 10:06:38;;;;;;;0.68;0.50;;;24.00;76.40;23.90;101709.00;;;;4986857;28;109907;-67
2023/09/24 10:09:26;;;;;;;0.52;0.52;;;23.70;77.70;23.60;101711.00;;;;4977043;28;88376;-66
2023/09/24 10:11:55;;;;;;;4.70;1.08;;;23.40;78.30;23.30;101711.00;;;;4991285;28;88116;-67
2023/09/24 10:14:36;;;;;;;0.80;0.80;;;23.20;77.90;23.20;101724.00;;;;4987540;28;88663;-67
2023/09/24 10:17:23;;;;;;;0.88;0.63;;;23.00;78.50;23.00;101713.00;;;;4987798;28;87612;-67
2023/09/24 10:19:55;;;;;;;1.27;0.55;;;22.90;79.20;23.20;101718.00;;;;4985561;27;88065;-67
2023/09/24 10:22:26;;;;;;;1.10;0.57;;;22.90;79.40;23.70;101717.00;;;;4975349;28;88492;-67
2023/09/24 10:24:52;;;;;;;0.70;0.70;;;23.30;79.60;24.20;101715.00;;;;4985017;28;87921;-69
2023/09/24 10:27:27;;;;;;;0.65;0.60;;;23.70;78.50;24.50;101712.00;;;;4981861;28;88165;-67
2023/09/24 10:29:54;;;;;;;0.57;0.52;;;23.80;76.30;24.70;101714.00;;;;4985985;28;88095;-68
2023/09/24 10:32:22;;;;;;;2.03;0.90;;;24.20;74.90;24.60;101709.00;;;;4987266;28;88453;-66
2023/09/24 10:35:09;;;;;;;1.08;0.52;;;24.30;72.80;24.50;101719.00;;;;4988525;28;87958;-68
2023/09/24 10:37:37;;;;;;;1.08;1.00;;;24.20;73.10;24.40;101727.00;;;;4966401;28;88117;-66
2023/09/24 10:40:05;;;;;;;1.55;0.80;;;24.10;72.70;24.20;101725.00;;;;4988462;28;88884;-66
2023/09/24 10:42:33;;;;;;;0.70;0.70;;;23.90;73.40;23.90;101721.00;;;;4986690;27;88850;-68
2023/09/24 10:45:08;;;;;;;2.30;0.55;;;23.70;73.20;23.50;101733.00;;;;4977439;28;88061;-67
2023/09/24 10:47:45;;;;;;;0.40;0.32;;;23.40;72.40;23.20;101723.00;;;;4979615;28;87964;-66
2023/09/24 10:50:19;;;;;;;0.50;0.50;;;23.10;73.00;22.90;101730.00;;;;4987110;28;88001;-68
2023/09/24 10:53:02;;;;;;;0.50;0.50;;;22.80;73.20;22.60;101727.00;;;;4990073;28;107251;-67
2023/09/24 10:55:30;;;;;;;0.50;0.50;;;22.60;74.20;22.50;101729.00;;;;4965495;28;87960;-67
2023/09/24 10:58:05;;;;;;;2.80;0.73;;;22.40;75.00;22.40;101729.00;;;;4977250;28;88697;-66